FOON

M'Vengue El Hadj Omar Bongo Ondimba International Airport

Franceville, Gabon
METAR FOON 242100Z VRB02KT 8000 FEW010 FEW016CB 22/21 Q1015
Observed Flight Rules
Sep-24 @ 21:00 UTC (3 hours ago) Marginal Visual Flight Rules
Wind Visibility Clouds
Variable at 2 knots 7,998 meters
  • Few at 1,000' AGL
  • Few at 1,600' AGL
Temperatures Readings
Current 22°C / 72°F
Dewpoint 21°C / 70°F
Humidity 94%
Altimeter 29.97" Hg
Pressure 1015 hPa
Elevation 441
METAR FOON 242100Z VRB02KT 8000 FEW010 FEW016CB 22/21 Q1015
Observed Flight Rules
Sep-24 @ 21:00 UTC
(3 hours ago)
MVFR
Wind Visibility
Variable at 2 knots 7,998 meters
Clouds
  • Few at 1,000' AGL
  • Few at 1,600' AGL
Temperature Dewpoint
22°C / 72°F 21°C / 70°F
Humidity Altimeter Pressure
94% 29.97" Hg 1015 hPa